createdAt,value
2017-06-11T00:00:23.790Z,99.99
2017-06-11T00:01:25.216Z,99.99
2017-06-11T00:02:26.640Z,99.99
2017-06-11T00:03:28.071Z,99.99
2017-06-11T00:04:29.491Z,99.99
2017-06-11T00:05:30.920Z,99.99
2017-06-11T00:06:32.344Z,99.99
2017-06-11T00:07:33.779Z,99.99
2017-06-11T00:08:35.203Z,99.99
2017-06-11T00:09:36.636Z,99.99
2017-06-11T00:10:38.063Z,99.99
2017-06-11T00:11:39.503Z,99.99
2017-06-11T00:12:40.931Z,99.99
2017-06-11T00:13:43.180Z,99.99
2017-06-11T00:14:44.607Z,99.99
2017-06-11T00:15:46.038Z,99.99
2017-06-11T00:16:47.469Z,99.99
2017-06-11T00:17:48.891Z,99.99
2017-06-11T00:18:50.319Z,99.99
2017-06-11T00:19:51.742Z,99.99
2017-06-11T00:20:53.222Z,99.99
2017-06-11T00:21:54.651Z,99.99
2017-06-11T00:22:56.078Z,99.99
2017-06-11T00:23:57.511Z,99.99
2017-06-11T00:24:58.940Z,99.99
2017-06-11T00:26:00.369Z,99.99
2017-06-11T00:27:01.797Z,99.99
2017-06-11T00:28:03.227Z,99.99
2017-06-11T00:29:04.659Z,99.99
2017-06-11T00:30:06.089Z,99.99
2017-06-11T00:31:07.536Z,99.99
2017-06-11T00:32:08.959Z,99.99
2017-06-11T00:33:10.413Z,99.99
2017-06-11T00:34:11.820Z,99.99
2017-06-11T00:35:13.240Z,99.99
2017-06-11T00:36:14.667Z,99.99
2017-06-11T00:37:16.100Z,99.99
2017-06-11T00:38:17.517Z,99.99
2017-06-11T00:39:18.943Z,99.99
2017-06-11T00:40:20.391Z,99.99
2017-06-11T00:41:21.814Z,99.99
2017-06-11T00:42:23.244Z,99.99
2017-06-11T00:43:24.670Z,99.99
2017-06-11T00:45:28.488Z,99.99
2017-06-11T00:46:29.916Z,99.99
2017-06-11T00:47:31.346Z,99.99
2017-06-11T00:48:32.854Z,99.99
2017-06-11T00:49:34.279Z,99.99
2017-06-11T00:50:35.702Z,99.99
2017-06-11T00:51:37.127Z,99.99
2017-06-11T00:52:38.605Z,99.99
2017-06-11T00:53:40.040Z,99.99
2017-06-11T00:54:41.469Z,99.99
2017-06-11T00:55:42.903Z,99.99
2017-06-11T00:56:44.429Z,99.99
2017-06-11T00:57:45.855Z,99.99
2017-06-11T00:58:47.285Z,99.99
2017-06-11T00:59:48.721Z,99.99
2017-06-11T01:00:50.155Z,99.99
2017-06-11T01:01:51.589Z,99.99
2017-06-11T01:02:53.021Z,99.99
2017-06-11T01:03:54.509Z,99.99
2017-06-11T01:04:55.938Z,99.99
2017-06-11T01:05:57.368Z,99.99
2017-06-11T01:06:58.862Z,99.99
2017-06-11T01:08:00.301Z,99.99
2017-06-11T01:09:01.718Z,99.99
2017-06-11T01:10:03.147Z,99.99
2017-06-11T01:11:04.582Z,99.99
2017-06-11T01:12:06.006Z,99.99
2017-06-11T01:13:07.451Z,99.99
2017-06-11T01:14:08.885Z,99.99
2017-06-11T01:15:10.288Z,99.99
2017-06-11T01:16:11.717Z,99.99
2017-06-11T01:17:13.140Z,99.99
2017-06-11T01:18:14.568Z,99.99
2017-06-11T01:19:15.998Z,99.99
2017-06-11T01:20:17.422Z,99.99
2017-06-11T01:21:18.848Z,99.99
2017-06-11T01:22:20.274Z,99.99
2017-06-11T01:23:21.711Z,99.99
2017-06-11T01:24:23.136Z,99.99
2017-06-11T01:25:24.595Z,99.99
2017-06-11T01:26:25.989Z,99.99
2017-06-11T01:27:27.420Z,99.99
2017-06-11T01:28:28.843Z,99.99
2017-06-11T01:29:30.270Z,99.99
2017-06-11T01:30:31.712Z,99.99
2017-06-11T01:31:33.135Z,99.99
2017-06-11T01:32:34.555Z,99.99
2017-06-11T01:33:35.987Z,99.99
2017-06-11T01:34:37.418Z,99.99
2017-06-11T01:35:38.866Z,99.99
2017-06-11T01:36:40.276Z,99.99
2017-06-11T01:37:41.707Z,99.99
2017-06-11T01:38:43.129Z,99.99
2017-06-11T01:39:44.557Z,99.99
2017-06-11T01:40:45.985Z,99.99
2017-06-11T01:41:47.422Z,99.99
2017-06-11T01:42:48.847Z,99.99
2017-06-11T01:43:50.276Z,99.99
2017-06-11T01:44:51.702Z,99.99
2017-06-11T01:45:53.126Z,99.99
2017-06-11T01:46:54.555Z,99.99
2017-06-11T01:47:55.973Z,99.99
2017-06-11T01:48:57.397Z,99.72
2017-06-11T01:49:58.826Z,99.63
2017-06-11T01:51:00.251Z,99.99
2017-06-11T01:52:01.683Z,99.99
2017-06-11T01:53:03.108Z,99.99
2017-06-11T01:54:04.533Z,99.99
2017-06-11T01:55:05.954Z,99.99
2017-06-11T01:56:07.391Z,99.99
2017-06-11T01:57:08.816Z,99.99
2017-06-11T01:58:10.247Z,99.99
2017-06-11T01:59:11.670Z,99.99
2017-06-11T02:00:13.094Z,99.99
2017-06-11T02:01:14.521Z,99.99
2017-06-11T02:02:15.944Z,99.99
2017-06-11T02:03:17.402Z,99.99
2017-06-11T02:04:18.801Z,99.99
2017-06-11T02:05:20.222Z,99.99
2017-06-11T02:06:21.656Z,99.99
2017-06-11T02:07:23.083Z,99.99
2017-06-11T02:08:24.546Z,99.99
2017-06-11T02:09:25.963Z,99.99
2017-06-11T02:10:27.399Z,99.99
2017-06-11T02:11:28.822Z,99.99
2017-06-11T02:12:30.251Z,99.99
2017-06-11T02:13:31.678Z,99.99
2017-06-11T02:14:33.107Z,99.99
2017-06-11T02:15:34.539Z,99.99
2017-06-11T02:16:35.965Z,99.99
2017-06-11T02:17:37.397Z,99.99
2017-06-11T02:18:38.825Z,99.99
2017-06-11T02:19:40.262Z,99.99
2017-06-11T02:20:41.688Z,99.99
2017-06-11T02:21:43.114Z,99.99
2017-06-11T02:22:44.539Z,99.99
2017-06-11T02:23:45.967Z,99.99
2017-06-11T02:24:47.396Z,99.99
2017-06-11T02:25:48.821Z,99.99
2017-06-11T02:26:50.258Z,99.99
2017-06-11T02:27:51.675Z,99.99
2017-06-11T02:28:53.104Z,99.99
2017-06-11T02:29:54.532Z,99.99
2017-06-11T02:30:55.959Z,99.99
2017-06-11T02:31:57.388Z,99.99
2017-06-11T02:32:58.804Z,99.99
2017-06-11T02:34:00.236Z,99.99
2017-06-11T02:35:01.660Z,99.99
2017-06-11T02:36:03.090Z,99.99
2017-06-11T02:37:04.520Z,99.99
2017-06-11T02:38:05.951Z,99.99
2017-06-11T02:39:07.375Z,99.99
2017-06-11T02:40:08.810Z,99.99
2017-06-11T02:41:10.239Z,99.01
2017-06-11T02:42:11.668Z,98.81
2017-06-11T02:43:13.088Z,98.91
2017-06-11T02:44:14.522Z,97.95
2017-06-11T02:45:15.953Z,97.76
2017-06-11T02:46:17.382Z,97.47
2017-06-11T02:47:18.802Z,97.66
2017-06-11T02:48:20.239Z,96.61
2017-06-11T02:49:21.665Z,96.08
2017-06-11T02:50:23.104Z,96.08
2017-06-11T02:51:24.527Z,95.79
2017-06-11T02:52:25.947Z,97.42
2017-06-11T02:53:27.377Z,96.18
2017-06-11T02:54:28.808Z,96.66
2017-06-11T02:55:30.238Z,95.41
2017-06-11T02:56:31.681Z,94.98
2017-06-11T02:57:33.109Z,94.40
2017-06-11T02:58:34.542Z,94.98
2017-06-11T02:59:35.968Z,95.55
2017-06-11T03:00:37.393Z,93.35
2017-06-11T03:01:38.826Z,92.86
2017-06-11T03:02:40.254Z,92.86
2017-06-11T03:03:41.678Z,93.73
2017-06-11T03:04:43.113Z,93.73
2017-06-11T03:05:44.539Z,92.86
2017-06-11T03:06:47.157Z,93.44
2017-06-11T03:07:48.584Z,93.06
2017-06-11T03:08:50.010Z,94.49
2017-06-11T03:09:51.452Z,94.02
2017-06-11T03:10:52.871Z,93.73
2017-06-11T03:11:54.303Z,93.54
2017-06-11T03:12:55.737Z,94.31
2017-06-11T03:13:57.168Z,95.65
2017-06-11T03:14:58.594Z,96.18
2017-06-11T03:16:00.025Z,96.08
2017-06-11T03:17:01.456Z,95.21
2017-06-11T03:18:02.883Z,96.47
2017-06-11T03:19:04.307Z,95.36
2017-06-11T03:20:05.738Z,94.17
2017-06-11T03:21:07.153Z,93.82
2017-06-11T03:22:08.588Z,96.13
2017-06-11T03:23:10.021Z,94.02
2017-06-11T03:24:11.447Z,94.12
2017-06-11T03:25:12.868Z,94.02
2017-06-11T03:26:14.303Z,93.92
2017-06-11T03:27:15.733Z,95.46
2017-06-11T03:28:17.165Z,95.75
2017-06-11T03:29:18.591Z,94.40
2017-06-11T03:30:20.021Z,96.13
2017-06-11T03:31:21.450Z,96.85
2017-06-11T03:32:22.948Z,97.52
2017-06-11T03:33:24.384Z,97.71
2017-06-11T03:34:25.814Z,98.28
2017-06-11T03:35:27.239Z,98.19
2017-06-11T03:36:28.681Z,97.52
2017-06-11T03:37:30.111Z,98.19
2017-06-11T03:38:31.539Z,98.77
2017-06-11T03:39:32.971Z,99.24
2017-06-11T03:40:34.404Z,98.77
2017-06-11T03:41:35.827Z,98.96
2017-06-11T03:42:37.261Z,98.96
2017-06-11T03:43:38.690Z,98.38
2017-06-11T03:44:40.118Z,97.71
2017-06-11T03:45:41.550Z,99.05
2017-06-11T03:46:43.568Z,98.67
2017-06-11T03:47:44.997Z,97.90
2017-06-11T03:48:46.433Z,97.71
2017-06-11T03:49:47.859Z,97.90
2017-06-11T03:50:49.291Z,98.00
2017-06-11T03:51:51.695Z,97.71
2017-06-11T03:52:53.120Z,96.18
2017-06-11T03:53:54.548Z,96.85
2017-06-11T03:54:55.978Z,97.71
2017-06-11T03:55:57.411Z,97.52
2017-06-11T03:56:58.846Z,97.61
2017-06-11T03:58:00.281Z,97.71
2017-06-11T03:59:01.707Z,98.77
2017-06-11T04:00:03.137Z,96.75
2017-06-11T04:01:04.567Z,98.00
2017-06-11T04:02:06.001Z,96.66
2017-06-11T04:03:07.432Z,96.47
2017-06-11T04:04:08.857Z,96.61
2017-06-11T04:05:10.294Z,96.61
2017-06-11T04:06:11.726Z,96.80
2017-06-11T04:07:13.163Z,96.70
2017-06-11T04:08:14.593Z,96.70
2017-06-11T04:09:16.022Z,96.99
2017-06-11T04:10:17.456Z,95.75
2017-06-11T04:11:18.876Z,95.46
2017-06-11T04:12:20.308Z,96.89
2017-06-11T04:13:21.738Z,97.38
2017-06-11T04:14:23.165Z,95.75
2017-06-11T04:15:24.598Z,96.70
2017-06-11T04:16:26.024Z,97.56
2017-06-11T04:17:27.456Z,96.99
2017-06-11T04:18:28.894Z,96.13
2017-06-11T04:19:30.327Z,97.56
2017-06-11T04:20:31.757Z,95.36
2017-06-11T04:21:33.188Z,95.84
2017-06-11T04:22:34.632Z,94.31
2017-06-11T04:23:36.055Z,93.97
2017-06-11T04:24:37.483Z,94.16
2017-06-11T04:25:38.921Z,93.01
2017-06-11T04:26:40.357Z,92.72
2017-06-11T04:27:41.794Z,95.41
2017-06-11T04:28:43.217Z,92.91
2017-06-11T04:29:44.645Z,93.68
2017-06-11T04:30:46.081Z,94.07
2017-06-11T04:31:47.505Z,92.91
2017-06-11T04:32:48.942Z,93.87
2017-06-11T04:33:50.368Z,94.31
2017-06-11T04:34:51.799Z,94.45
2017-06-11T04:35:53.233Z,94.31
2017-06-11T04:36:54.662Z,94.40
2017-06-11T04:37:57.050Z,93.92
2017-06-11T04:38:58.478Z,93.54
2017-06-11T04:39:59.912Z,92.29
2017-06-11T04:41:01.343Z,91.61
2017-06-11T04:42:02.778Z,90.94
2017-06-11T04:43:04.213Z,93.77
2017-06-11T04:44:05.654Z,91.08
2017-06-11T04:45:07.079Z,91.47
2017-06-11T04:46:08.515Z,91.75
2017-06-11T04:47:09.950Z,91.37
2017-06-11T04:48:11.376Z,90.99
2017-06-11T04:49:12.819Z,91.85
2017-06-11T04:50:14.247Z,91.08
2017-06-11T04:51:15.677Z,92.91
2017-06-11T04:52:17.108Z,92.33
2017-06-11T04:53:18.552Z,91.56
2017-06-11T04:54:19.978Z,91.28
2017-06-11T04:55:21.413Z,92.24
2017-06-11T04:56:22.938Z,92.14
2017-06-11T04:57:24.373Z,93.39
2017-06-11T04:58:25.801Z,93.58
2017-06-11T04:59:27.236Z,92.62
2017-06-11T05:00:28.670Z,93.77
2017-06-11T05:01:30.100Z,94.73
2017-06-11T05:02:31.525Z,96.47
2017-06-11T05:03:32.957Z,96.08
2017-06-11T05:04:34.395Z,92.91
2017-06-11T05:05:35.837Z,92.43
2017-06-11T05:06:37.270Z,93.29
2017-06-11T05:07:38.693Z,93.87
2017-06-11T05:08:40.130Z,92.81
2017-06-11T05:09:41.559Z,92.52
2017-06-11T05:10:42.990Z,91.71
2017-06-11T05:11:44.422Z,92.76
2017-06-11T05:12:45.859Z,91.32
2017-06-11T05:13:47.295Z,91.42
2017-06-11T05:14:48.733Z,91.42
2017-06-11T05:15:50.158Z,90.45
2017-06-11T05:16:51.581Z,91.32
2017-06-11T05:17:53.017Z,91.42
2017-06-11T05:18:54.451Z,92.76
2017-06-11T05:19:55.880Z,90.94
2017-06-11T05:20:57.310Z,91.52
2017-06-11T05:21:58.745Z,89.98
2017-06-11T05:23:00.182Z,88.63
2017-06-11T05:24:01.619Z,88.92
2017-06-11T05:25:03.047Z,88.24
2017-06-11T05:26:04.480Z,89.11
2017-06-11T05:27:05.917Z,88.73
2017-06-11T05:28:07.345Z,88.19
2017-06-11T05:29:08.774Z,88.87
2017-06-11T05:30:10.207Z,89.15
2017-06-11T05:31:11.629Z,90.02
2017-06-11T05:32:13.057Z,89.35
2017-06-11T05:33:14.520Z,88.19
2017-06-11T05:34:15.928Z,88.00
2017-06-11T05:35:17.358Z,89.54
2017-06-11T05:36:18.787Z,88.10
2017-06-11T05:37:20.216Z,87.81
2017-06-11T05:38:21.655Z,87.56
2017-06-11T05:39:23.088Z,87.85
2017-06-11T05:40:24.517Z,86.69
2017-06-11T05:41:25.943Z,88.62
2017-06-11T05:42:27.380Z,88.04
2017-06-11T05:43:28.830Z,86.60
2017-06-11T05:44:30.259Z,88.43
2017-06-11T05:45:31.688Z,86.51
2017-06-11T05:46:33.117Z,88.33
2017-06-11T05:47:34.551Z,87.18
2017-06-11T05:48:35.980Z,88.71
2017-06-11T05:49:38.176Z,86.89
2017-06-11T05:50:39.609Z,87.56
2017-06-11T05:51:41.038Z,87.27
2017-06-11T05:52:42.465Z,88.91
2017-06-11T05:53:43.903Z,87.18
2017-06-11T05:54:45.332Z,87.18
2017-06-11T05:55:46.766Z,87.27
2017-06-11T05:56:48.197Z,87.60
2017-06-11T05:57:49.634Z,86.55
2017-06-11T05:58:51.075Z,87.03
2017-06-11T05:59:52.502Z,86.93
2017-06-11T06:00:53.938Z,86.83
2017-06-11T06:01:55.367Z,86.93
2017-06-11T06:02:56.801Z,86.83
2017-06-11T06:03:58.237Z,89.43
2017-06-11T06:04:59.668Z,88.28
2017-06-11T06:06:01.109Z,87.60
2017-06-11T06:07:02.535Z,89.05
2017-06-11T06:08:03.971Z,89.15
2017-06-11T06:09:05.412Z,88.18
2017-06-11T06:10:06.838Z,87.70
2017-06-11T06:11:08.272Z,88.09
2017-06-11T06:12:09.700Z,88.76
2017-06-11T06:13:11.131Z,88.57
2017-06-11T06:14:12.564Z,89.53
2017-06-11T06:15:13.993Z,90.59
2017-06-11T06:16:15.424Z,88.76
2017-06-11T06:17:16.851Z,89.43
2017-06-11T06:18:18.286Z,88.76
2017-06-11T06:19:19.720Z,89.63
2017-06-11T06:20:21.153Z,86.65
2017-06-11T06:21:22.584Z,87.41
2017-06-11T06:22:24.009Z,85.43
2017-06-11T06:23:25.440Z,86.88
2017-06-11T06:24:26.867Z,87.41
2017-06-11T06:25:28.301Z,86.45
2017-06-11T06:26:29.726Z,86.49
2017-06-11T06:27:31.162Z,86.88
2017-06-11T06:28:32.588Z,85.24
2017-06-11T06:29:34.029Z,86.78
2017-06-11T06:30:35.461Z,86.11
2017-06-11T06:31:36.891Z,85.53
2017-06-11T06:32:38.320Z,85.05
2017-06-11T06:33:39.751Z,86.30
2017-06-11T06:34:41.188Z,85.34
2017-06-11T06:35:42.616Z,83.99
2017-06-11T06:36:44.051Z,85.24
2017-06-11T06:37:45.486Z,85.24
2017-06-11T06:38:46.913Z,84.66
2017-06-11T06:39:48.348Z,86.01
2017-06-11T06:40:49.790Z,84.95
2017-06-11T06:41:51.223Z,84.61
2017-06-11T06:42:52.656Z,83.64
2017-06-11T06:43:54.093Z,83.07
2017-06-11T06:44:55.526Z,83.84
2017-06-11T06:45:56.955Z,82.39
2017-06-11T06:46:58.391Z,83.84
2017-06-11T06:47:59.820Z,82.78
2017-06-11T06:49:01.252Z,83.84
2017-06-11T06:50:02.687Z,84.12
2017-06-11T06:51:04.117Z,85.57
2017-06-11T06:52:05.552Z,84.99
2017-06-11T06:53:06.992Z,84.42
2017-06-11T06:54:08.433Z,86.25
2017-06-11T06:55:09.870Z,84.90
2017-06-11T06:56:11.301Z,83.64
2017-06-11T06:57:12.730Z,84.32
2017-06-11T06:58:14.168Z,85.86
2017-06-11T06:59:15.602Z,84.70
2017-06-11T07:00:17.049Z,85.77
2017-06-11T07:01:18.482Z,85.42
2017-06-11T07:02:19.935Z,84.17
2017-06-11T07:03:21.364Z,83.40
2017-06-11T07:04:22.793Z,82.14
2017-06-11T07:05:24.310Z,83.88
2017-06-11T07:06:25.755Z,80.79
2017-06-11T07:07:27.191Z,81.76
2017-06-11T07:08:28.619Z,81.27
2017-06-11T07:09:30.057Z,81.70
2017-06-11T07:10:31.488Z,85.13
2017-06-11T07:11:32.921Z,81.41
2017-06-11T07:12:34.366Z,79.77
2017-06-11T07:13:35.803Z,84.21
2017-06-11T07:14:37.245Z,80.12
2017-06-11T07:15:38.688Z,80.22
2017-06-11T07:16:40.124Z,80.99
2017-06-11T07:17:41.553Z,80.93
2017-06-11T07:18:42.990Z,80.06
2017-06-11T07:19:44.434Z,82.14
2017-06-11T07:20:45.870Z,79.68
2017-06-11T07:21:47.301Z,79.29
2017-06-11T07:22:48.741Z,80.16
2017-06-11T07:23:50.190Z,79.68
2017-06-11T07:24:51.624Z,80.54
2017-06-11T07:25:53.057Z,80.54
2017-06-11T07:26:54.491Z,82.28
2017-06-11T07:27:55.926Z,80.06
2017-06-11T07:28:57.359Z,80.45
2017-06-11T07:29:58.795Z,80.00
2017-06-11T07:31:00.235Z,81.07
2017-06-11T07:32:01.664Z,79.81
2017-06-11T07:33:03.102Z,79.58
2017-06-11T07:34:04.529Z,80.20
2017-06-11T07:35:05.972Z,79.52
2017-06-11T07:36:07.409Z,79.62
2017-06-11T07:37:08.843Z,76.63
2017-06-11T07:38:10.279Z,77.50
2017-06-11T07:39:11.712Z,78.79
2017-06-11T07:40:13.155Z,78.66
2017-06-11T07:41:14.581Z,78.56
2017-06-11T07:42:16.021Z,78.21
2017-06-11T07:43:17.457Z,77.44
2017-06-11T07:44:18.897Z,78.50
2017-06-11T07:45:20.345Z,77.05
2017-06-11T07:46:21.781Z,78.41
2017-06-11T07:47:23.217Z,78.69
2017-06-11T07:48:24.647Z,75.79
2017-06-11T07:49:26.078Z,74.93
2017-06-11T07:50:27.521Z,76.76
2017-06-11T07:51:28.955Z,76.09
2017-06-11T07:52:30.390Z,75.70
2017-06-11T07:53:31.825Z,75.70
2017-06-11T07:54:33.262Z,73.77
2017-06-11T07:55:34.699Z,74.87
2017-06-11T07:56:36.157Z,76.51
2017-06-11T07:57:37.561Z,75.93
2017-06-11T07:58:39.004Z,74.73
2017-06-11T07:59:40.431Z,75.84
2017-06-11T08:00:41.860Z,76.61
2017-06-11T08:01:43.302Z,77.38
2017-06-11T08:02:44.739Z,74.87
2017-06-11T08:03:46.179Z,74.77
2017-06-11T08:04:47.614Z,76.42
2017-06-11T08:05:49.052Z,75.64
2017-06-11T08:06:50.482Z,74.87
2017-06-11T08:07:51.923Z,75.93
2017-06-11T08:08:53.358Z,75.93
2017-06-11T08:09:54.795Z,75.16
2017-06-11T08:10:56.231Z,76.12
2017-06-11T08:11:57.658Z,77.86
2017-06-11T08:12:59.096Z,77.76
2017-06-11T08:14:00.534Z,75.45
2017-06-11T08:15:01.965Z,75.16
2017-06-11T08:16:03.409Z,76.80
2017-06-11T08:17:04.838Z,76.18
2017-06-11T08:18:06.270Z,74.73
2017-06-11T08:19:07.729Z,75.54
2017-06-11T08:20:09.129Z,74.58
2017-06-11T08:21:10.564Z,74.83
2017-06-11T08:22:11.995Z,76.03
2017-06-11T08:23:13.426Z,75.45
2017-06-11T08:24:14.857Z,75.06
2017-06-11T08:25:16.287Z,77.28
2017-06-11T08:26:17.730Z,74.13
2017-06-11T08:27:19.171Z,74.38
2017-06-11T08:28:20.608Z,74.48
2017-06-11T08:29:22.037Z,76.64
2017-06-11T08:30:23.484Z,75.48
2017-06-11T08:31:24.921Z,72.39
2017-06-11T08:32:26.361Z,73.46
2017-06-11T08:33:27.796Z,74.71
2017-06-11T08:34:29.231Z,74.75
2017-06-11T08:35:30.673Z,70.59
2017-06-11T08:36:32.098Z,73.20
2017-06-11T08:37:33.540Z,70.98
2017-06-11T08:38:34.979Z,71.75
2017-06-11T08:39:36.421Z,68.37
2017-06-11T08:40:37.892Z,70.10
2017-06-11T08:41:39.314Z,70.14
2017-06-11T08:42:40.755Z,67.69
2017-06-11T08:43:42.181Z,73.53
2017-06-11T08:44:43.622Z,74.30
2017-06-11T08:45:45.063Z,73.08
2017-06-11T08:46:46.490Z,69.89
2017-06-11T08:47:47.931Z,67.37
2017-06-11T08:48:49.372Z,70.18
2017-06-11T08:49:50.807Z,67.56
2017-06-11T08:50:52.252Z,68.53
2017-06-11T08:51:53.684Z,70.95
2017-06-11T08:52:55.124Z,69.08
2017-06-11T08:53:56.576Z,71.44
2017-06-11T08:54:58.011Z,70.95
2017-06-11T08:55:59.451Z,69.63
2017-06-11T08:57:00.895Z,66.82
2017-06-11T08:58:02.328Z,67.18
2017-06-11T08:59:03.757Z,67.08
2017-06-11T09:00:05.202Z,68.73
2017-06-11T09:01:06.674Z,67.56
2017-06-11T09:02:08.081Z,66.43
2017-06-11T09:03:09.519Z,65.85
2017-06-11T09:04:10.954Z,64.69
2017-06-11T09:05:12.395Z,66.82
2017-06-11T09:06:13.834Z,66.82
2017-06-11T09:07:15.269Z,68.63
2017-06-11T09:08:16.713Z,68.43
2017-06-11T09:09:18.149Z,69.21
2017-06-11T09:10:19.585Z,71.95
2017-06-11T09:11:21.023Z,66.75
2017-06-11T09:12:22.485Z,66.89
2017-06-11T09:13:23.927Z,66.75
2017-06-11T09:14:25.364Z,67.85
2017-06-11T09:15:26.803Z,69.70
2017-06-11T09:16:28.258Z,66.56
2017-06-11T09:17:29.701Z,66.30
2017-06-11T09:18:31.140Z,66.11
2017-06-11T09:19:32.578Z,62.82
2017-06-11T09:20:34.017Z,64.85
2017-06-11T09:21:35.465Z,60.55
2017-06-11T09:22:36.902Z,63.69
2017-06-11T09:23:38.365Z,65.47
2017-06-11T09:24:39.799Z,66.82
2017-06-11T09:25:41.234Z,64.78
2017-06-11T09:26:42.670Z,65.17
2017-06-11T09:27:44.112Z,65.56
2017-06-11T09:28:45.549Z,64.43
2017-06-11T09:29:47.022Z,66.08
2017-06-11T09:30:48.462Z,62.85
2017-06-11T09:31:49.909Z,63.23
2017-06-11T09:32:51.351Z,65.56
2017-06-11T09:33:52.784Z,69.54
2017-06-11T09:34:54.214Z,65.08
2017-06-11T09:35:55.659Z,66.24
2017-06-11T09:36:57.098Z,65.34
2017-06-11T09:37:58.544Z,66.14
2017-06-11T09:38:59.984Z,66.27
2017-06-11T09:40:01.415Z,66.53
2017-06-11T09:41:02.863Z,61.98
2017-06-11T09:42:04.329Z,64.30
2017-06-11T09:43:05.770Z,62.16
2017-06-11T09:44:07.209Z,62.55
2017-06-11T09:45:08.664Z,63.23
2017-06-11T09:46:10.096Z,63.33
2017-06-11T09:47:11.538Z,59.94
2017-06-11T09:48:12.980Z,61.49
2017-06-11T09:49:14.418Z,64.20
2017-06-11T09:50:15.852Z,60.94
2017-06-11T09:51:17.290Z,60.71
2017-06-11T09:52:18.739Z,61.19
2017-06-11T09:53:20.182Z,59.19
2017-06-11T09:54:21.621Z,63.36
2017-06-11T09:55:23.080Z,59.77
2017-06-11T09:56:24.526Z,61.61
2017-06-11T09:57:25.961Z,60.64
2017-06-11T09:58:27.399Z,59.26
2017-06-11T09:59:28.843Z,60.25
2017-06-11T10:00:30.284Z,61.22
2017-06-11T10:01:31.726Z,60.61
2017-06-11T10:02:33.174Z,58.77
2017-06-11T10:03:34.616Z,59.64
2017-06-11T10:04:36.056Z,60.94
2017-06-11T10:05:37.490Z,62.10
2017-06-11T10:06:38.936Z,61.42
2017-06-11T10:07:40.370Z,57.15
2017-06-11T10:08:41.810Z,59.58
2017-06-11T10:09:43.244Z,62.49
2017-06-11T10:10:44.740Z,59.67
2017-06-11T10:11:46.184Z,60.25
2017-06-11T10:12:47.619Z,59.00
2017-06-11T10:13:49.063Z,59.90
2017-06-11T10:14:50.506Z,63.07
2017-06-11T10:15:51.942Z,61.25
2017-06-11T10:16:53.378Z,59.41
2017-06-11T10:17:54.837Z,61.07
2017-06-11T10:18:56.275Z,61.97
2017-06-11T10:19:57.711Z,59.61
2017-06-11T10:20:59.149Z,59.34
2017-06-11T10:22:00.593Z,60.74
2017-06-11T10:23:02.039Z,57.33
2017-06-11T10:24:03.482Z,56.85
2017-06-11T10:25:04.924Z,58.11
2017-06-11T10:26:06.376Z,62.13
2017-06-11T10:27:07.814Z,58.98
2017-06-11T10:28:09.256Z,61.25
2017-06-11T10:29:10.697Z,58.72
2017-06-11T10:30:12.144Z,55.90
2017-06-11T10:31:15.065Z,57.46
2017-06-11T10:32:15.624Z,58.53
2017-06-11T10:33:17.050Z,58.56
2017-06-11T10:34:19.763Z,60.11
2017-06-11T10:35:21.199Z,58.07
2017-06-11T10:36:22.645Z,56.41
2017-06-11T10:37:24.130Z,55.90
2017-06-11T10:38:25.565Z,54.42
2017-06-11T10:39:27.089Z,56.00
2017-06-11T10:40:28.526Z,56.29
2017-06-11T10:41:29.966Z,58.82
2017-06-11T10:42:31.410Z,55.13
2017-06-11T10:43:32.857Z,56.97
2017-06-11T10:44:34.344Z,61.35
2017-06-11T10:45:35.778Z,56.32
2017-06-11T10:46:37.221Z,54.99
2017-06-11T10:47:38.664Z,54.18
2017-06-11T10:48:40.108Z,57.32
2017-06-11T10:49:41.555Z,54.40
2017-06-11T10:50:42.993Z,54.01
2017-06-11T10:51:44.463Z,54.69
2017-06-11T10:52:45.909Z,53.94
2017-06-11T10:53:47.353Z,54.40
2017-06-11T10:54:48.784Z,57.32
2017-06-11T10:55:50.242Z,55.18
2017-06-11T10:56:51.681Z,53.45
2017-06-11T10:57:53.146Z,57.06
2017-06-11T10:58:54.561Z,57.86
2017-06-11T10:59:56.004Z,53.19
2017-06-11T11:00:57.441Z,55.91
2017-06-11T11:01:58.880Z,52.19
2017-06-11T11:03:00.317Z,53.87
2017-06-11T11:04:01.763Z,55.11
2017-06-11T11:05:03.199Z,56.21
2017-06-11T11:06:04.635Z,52.70
2017-06-11T11:07:06.080Z,52.14
2017-06-11T11:08:07.522Z,52.80
2017-06-11T11:09:08.966Z,52.53
2017-06-11T11:10:10.441Z,54.58
2017-06-11T11:11:11.882Z,55.07
2017-06-11T11:12:13.322Z,54.09
2017-06-11T11:13:14.759Z,52.53
2017-06-11T11:14:16.211Z,53.48
2017-06-11T11:15:17.650Z,49.17
2017-06-11T11:16:19.089Z,53.55
2017-06-11T11:17:20.529Z,54.72
2017-06-11T11:18:21.970Z,51.97
2017-06-11T11:19:25.798Z,54.94
2017-06-11T11:20:27.236Z,54.68
2017-06-11T11:21:28.683Z,53.02
2017-06-11T11:22:30.122Z,51.92
2017-06-11T11:23:31.561Z,53.97
2017-06-11T11:24:32.997Z,50.65
2017-06-11T11:25:34.438Z,55.65
2017-06-11T11:26:35.880Z,54.41
2017-06-11T11:27:37.321Z,53.46
2017-06-11T11:28:38.763Z,54.34
2017-06-11T11:29:40.200Z,50.99
2017-06-11T11:30:41.641Z,55.02
2017-06-11T11:31:43.081Z,51.97
2017-06-11T11:32:44.524Z,52.66
2017-06-11T11:33:45.972Z,52.36
2017-06-11T11:34:47.411Z,52.85
2017-06-11T11:35:48.855Z,54.24
2017-06-11T11:36:50.291Z,54.66
2017-06-11T11:37:51.742Z,49.88
2017-06-11T11:38:53.181Z,52.39
2017-06-11T11:39:54.626Z,51.51
2017-06-11T11:40:56.071Z,50.85
2017-06-11T11:41:57.527Z,50.75
2017-06-11T11:42:59.004Z,49.00
2017-06-11T11:44:00.608Z,48.00
2017-06-11T11:45:02.050Z,48.85
2017-06-11T11:46:03.490Z,49.46
2017-06-11T11:47:04.929Z,49.76
2017-06-11T11:48:06.361Z,49.10
2017-06-11T11:49:07.808Z,50.16
2017-06-11T11:50:09.252Z,48.90
2017-06-11T11:51:10.693Z,49.17
2017-06-11T11:52:12.123Z,52.22
2017-06-11T11:53:13.590Z,50.82
2017-06-11T11:54:15.060Z,52.36
2017-06-11T11:55:16.480Z,50.68
2017-06-11T11:56:17.926Z,52.14
2017-06-11T11:57:19.376Z,53.34
2017-06-11T11:58:20.813Z,53.44
2017-06-11T11:59:22.252Z,51.87
2017-06-11T12:00:23.695Z,50.21
2017-06-11T12:01:25.150Z,49.15
2017-06-11T12:02:26.590Z,51.36
2017-06-11T12:03:28.033Z,49.22
2017-06-11T12:04:29.476Z,50.78
2017-06-11T12:05:30.913Z,51.75
2017-06-11T12:06:32.352Z,52.60
2017-06-11T12:07:33.789Z,51.02
2017-06-11T12:08:35.230Z,53.55
2017-06-11T12:09:36.681Z,56.27
2017-06-11T12:10:38.110Z,55.21
2017-06-11T12:11:39.556Z,56.11
2017-06-11T12:12:40.993Z,51.63
2017-06-11T12:13:42.438Z,50.02
2017-06-11T12:14:44.388Z,52.73
2017-06-11T12:15:45.828Z,51.65
2017-06-11T12:16:47.276Z,52.75
2017-06-11T12:17:48.714Z,54.63
2017-06-11T12:18:50.172Z,53.27
2017-06-11T12:19:51.616Z,50.82
2017-06-11T12:20:53.069Z,50.80
2017-06-11T12:21:54.513Z,52.73
2017-06-11T12:22:55.952Z,53.31
2017-06-11T12:23:57.400Z,55.36
2017-06-11T12:24:58.832Z,56.07
2017-06-11T12:26:00.280Z,52.85
2017-06-11T12:27:01.718Z,53.50
2017-06-11T12:28:03.160Z,51.75
2017-06-11T12:29:04.608Z,50.19
2017-06-11T12:30:06.053Z,51.65
2017-06-11T12:31:07.504Z,51.65
2017-06-11T12:32:08.946Z,51.82
2017-06-11T12:33:10.385Z,55.13
2017-06-11T12:34:11.824Z,51.63
2017-06-11T12:35:13.268Z,50.26
2017-06-11T12:36:14.708Z,50.82
2017-06-11T12:37:16.155Z,50.73
2017-06-11T12:38:17.586Z,55.01
2017-06-11T12:39:19.025Z,52.58
2017-06-11T12:40:20.462Z,51.12
2017-06-11T12:41:21.898Z,51.67
2017-06-11T12:42:23.341Z,52.55
2017-06-11T12:43:24.785Z,52.14
2017-06-11T12:44:26.232Z,52.50
2017-06-11T12:45:27.673Z,53.59
2017-06-11T12:46:29.114Z,51.36
2017-06-11T12:47:30.551Z,53.86
2017-06-11T12:48:31.990Z,55.13
2017-06-11T12:49:33.430Z,57.46
2017-06-11T12:50:34.912Z,55.13
2017-06-11T12:51:36.352Z,57.36
2017-06-11T12:52:37.786Z,54.90
2017-06-11T12:53:39.241Z,56.87
2017-06-11T12:54:40.755Z,54.32
2017-06-11T12:55:42.202Z,55.29
2017-06-11T12:56:43.698Z,54.13
2017-06-11T12:57:45.272Z,52.57
2017-06-11T12:58:46.670Z,53.96
2017-06-11T12:59:48.110Z,54.54
2017-06-11T13:00:49.567Z,55.03
2017-06-11T13:01:51.007Z,54.25
2017-06-11T13:02:52.454Z,58.82
2017-06-11T13:03:53.898Z,56.20
2017-06-11T13:04:55.344Z,55.13
2017-06-11T13:05:56.785Z,56.39
2017-06-11T13:06:58.230Z,56.87
2017-06-11T13:07:59.668Z,56.77
2017-06-11T13:09:01.108Z,54.38
2017-06-11T13:10:02.552Z,55.15
2017-06-11T13:11:03.991Z,58.65
2017-06-11T13:12:05.432Z,55.74